sensor_id;sensor_type;location;lat;lon;timestamp;temperature;humidity
9668;DHT22;4872;48.316;10.650;2023-02-28T05:06:33;-1.60;90.20
9668;DHT22;4872;48.316;10.650;2023-02-28T05:09:00;-1.60;90.10
9668;DHT22;4872;48.316;10.650;2023-02-28T05:11:28;-1.60;90.30
9668;DHT22;4872;48.316;10.650;2023-02-28T05:13:59;-1.60;90.20
9668;DHT22;4872;48.316;10.650;2023-02-28T05:16:26;-1.60;90.20
9668;DHT22;4872;48.316;10.650;2023-02-28T05:18:52;-1.60;90.40
9668;DHT22;4872;48.316;10.650;2023-02-28T05:21:25;-1.50;90.60
9668;DHT22;4872;48.316;10.650;2023-02-28T05:23:54;-1.50;90.60
9668;DHT22;4872;48.316;10.650;2023-02-28T05:26:22;-1.60;90.40
9668;DHT22;4872;48.316;10.650;2023-02-28T05:28:49;-1.60;90.30
9668;DHT22;4872;48.316;10.650;2023-02-28T05:31:15;-1.60;90.50
9668;DHT22;4872;48.316;10.650;2023-02-28T05:33:42;-1.60;90.60
9668;DHT22;4872;48.316;10.650;2023-02-28T05:36:09;-1.60;90.50
9668;DHT22;4872;48.316;10.650;2023-02-28T05:38:36;-1.60;90.40
9668;DHT22;4872;48.316;10.650;2023-02-28T05:41:06;-1.60;90.20
9668;DHT22;4872;48.316;10.650;2023-02-28T05:43:33;-1.60;90.20
9668;DHT22;4872;48.316;10.650;2023-02-28T05:46:02;-1.60;90.20
9668;DHT22;4872;48.316;10.650;2023-02-28T05:48:29;-1.60;90.40
9668;DHT22;4872;48.316;10.650;2023-02-28T05:50:57;-1.70;90.20
9668;DHT22;4872;48.316;10.650;2023-02-28T05:53:23;-1.60;90.30
9668;DHT22;4872;48.316;10.650;2023-02-28T05:55:50;-1.60;90.30
9668;DHT22;4872;48.316;10.650;2023-02-28T05:58:18;-1.60;90.30
9668;DHT22;4872;48.316;10.650;2023-02-28T06:00:45;-1.60;90.30
9668;DHT22;4872;48.316;10.650;2023-02-28T06:03:12;-1.70;90.40
9668;DHT22;4872;48.316;10.650;2023-02-28T06:05:38;-1.70;90.40
9668;DHT22;4872;48.316;10.650;2023-02-28T06:08:05;-1.70;91.10
9668;DHT22;4872;48.316;10.650;2023-02-28T06:10:32;-1.70;91.20
9668;DHT22;4872;48.316;10.650;2023-02-28T06:12:59;-1.60;90.70
9668;DHT22;4872;48.316;10.650;2023-02-28T06:15:29;-1.50;90.50
9668;DHT22;4872;48.316;10.650;2023-02-28T06:17:56;-1.40;90.50
9668;DHT22;4872;48.316;10.650;2023-02-28T06:20:24;-1.60;90.30
9668;DHT22;4872;48.316;10.650;2023-02-28T06:22:51;-1.60;90.50
9668;DHT22;4872;48.316;10.650;2023-02-28T06:25:20;-1.50;90.10
9668;DHT22;4872;48.316;10.650;2023-02-28T06:27:47;-1.50;90.40
9668;DHT22;4872;48.316;10.650;2023-02-28T06:30:14;-1.60;90.30
9668;DHT22;4872;48.316;10.650;2023-02-28T06:32:42;-1.50;90.10
9668;DHT22;4872;48.316;10.650;2023-02-28T06:35:09;-1.40;90.10
9668;DHT22;4872;48.316;10.650;2023-02-28T06:37:36;-1.50;90.30
9668;DHT22;4872;48.316;10.650;2023-02-28T06:40:03;-1.50;90.40
9668;DHT22;4872;48.316;10.650;2023-02-28T06:42:32;-1.50;90.20
9668;DHT22;4872;48.316;10.650;2023-02-28T06:44:59;-1.40;90.00
9668;DHT22;4872;48.316;10.650;2023-02-28T06:47:25;-1.40;89.40
9668;DHT22;4872;48.316;10.650;2023-02-28T06:49:53;-1.40;89.20
9668;DHT22;4872;48.316;10.650;2023-02-28T06:52:20;-1.40;89.10
9668;DHT22;4872;48.316;10.650;2023-02-28T06:54:47;-1.40;89.10
9668;DHT22;4872;48.316;10.650;2023-02-28T06:57:25;-1.50;88.80
9668;DHT22;4872;48.316;10.650;2023-02-28T06:59:51;-1.50;88.50
9668;DHT22;4872;48.316;10.650;2023-02-28T07:02:18;-1.60;88.80
9668;DHT22;4872;48.316;10.650;2023-02-28T07:04:45;-1.60;89.00
9668;DHT22;4872;48.316;10.650;2023-02-28T07:07:13;-1.60;89.20
9668;DHT22;4872;48.316;10.650;2023-02-28T07:09:40;-1.50;89.20
9668;DHT22;4872;48.316;10.650;2023-02-28T07:12:07;-1.60;89.00
9668;DHT22;4872;48.316;10.650;2023-02-28T07:14:33;-1.50;90.00
9668;DHT22;4872;48.316;10.650;2023-02-28T07:17:02;-1.50;89.30
9668;DHT22;4872;48.316;10.650;2023-02-28T07:19:29;-1.50;89.10
9668;DHT22;4872;48.316;10.650;2023-02-28T07:21:56;-1.50;89.10
9668;DHT22;4872;48.316;10.650;2023-02-28T07:24:24;-1.50;88.70
9668;DHT22;4872;48.316;10.650;2023-02-28T07:26:53;-1.40;89.00
9668;DHT22;4872;48.316;10.650;2023-02-28T07:29:20;-1.40;89.20
9668;DHT22;4872;48.316;10.650;2023-02-28T07:31:47;-1.50;88.60
9668;DHT22;4872;48.316;10.650;2023-02-28T07:34:15;-1.50;88.90
9668;DHT22;4872;48.316;10.650;2023-02-28T07:36:42;-1.40;89.60
9668;DHT22;4872;48.316;10.650;2023-02-28T07:39:09;-1.30;89.90
9668;DHT22;4872;48.316;10.650;2023-02-28T07:41:37;-1.40;88.30
9668;DHT22;4872;48.316;10.650;2023-02-28T07:44:08;-1.30;88.80
9668;DHT22;4872;48.316;10.650;2023-02-28T07:46:35;-1.30;89.60
9668;DHT22;4872;48.316;10.650;2023-02-28T07:49:02;-1.30;88.80
9668;DHT22;4872;48.316;10.650;2023-02-28T07:51:30;-1.30;88.40
9668;DHT22;4872;48.316;10.650;2023-02-28T07:53:57;-1.20;88.80
9668;DHT22;4872;48.316;10.650;2023-02-28T07:56:23;-1.20;88.90
9668;DHT22;4872;48.316;10.650;2023-02-28T07:58:52;-1.20;89.50
9668;DHT22;4872;48.316;10.650;2023-02-28T08:01:18;-1.10;88.80
9668;DHT22;4872;48.316;10.650;2023-02-28T08:03:45;-1.00;89.20
9668;DHT22;4872;48.316;10.650;2023-02-28T08:06:17;-1.00;88.30
9668;DHT22;4872;48.316;10.650;2023-02-28T08:08:44;-1.00;88.90
9668;DHT22;4872;48.316;10.650;2023-02-28T08:11:11;-1.00;88.20
9668;DHT22;4872;48.316;10.650;2023-02-28T08:13:37;-1.00;90.00
9668;DHT22;4872;48.316;10.650;2023-02-28T08:16:06;-1.00;89.40
9668;DHT22;4872;48.316;10.650;2023-02-28T08:18:33;-0.90;88.10
9668;DHT22;4872;48.316;10.650;2023-02-28T08:21:04;-0.90;88.90
9668;DHT22;4872;48.316;10.650;2023-02-28T08:23:31;-0.90;88.40
9668;DHT22;4872;48.316;10.650;2023-02-28T08:25:59;-0.90;88.40
9668;DHT22;4872;48.316;10.650;2023-02-28T08:28:25;-0.80;88.70
9668;DHT22;4872;48.316;10.650;2023-02-28T08:30:52;-0.80;87.80
9668;DHT22;4872;48.316;10.650;2023-02-28T08:33:21;-0.80;88.30
9668;DHT22;4872;48.316;10.650;2023-02-28T08:35:48;-0.70;88.70
9668;DHT22;4872;48.316;10.650;2023-02-28T08:38:14;-0.70;88.30
9668;DHT22;4872;48.316;10.650;2023-02-28T08:40:41;-0.70;87.30
9668;DHT22;4872;48.316;10.650;2023-02-28T08:43:08;-0.70;87.60
9668;DHT22;4872;48.316;10.650;2023-02-28T08:45:35;-0.60;87.70
9668;DHT22;4872;48.316;10.650;2023-02-28T08:48:01;-0.60;88.30
9668;DHT22;4872;48.316;10.650;2023-02-28T08:50:29;-0.50;88.60
9668;DHT22;4872;48.316;10.650;2023-02-28T08:52:56;-0.50;88.60
9668;DHT22;4872;48.316;10.650;2023-02-28T08:55:23;-0.50;87.50
9668;DHT22;4872;48.316;10.650;2023-02-28T08:57:50;-0.50;87.90
9668;DHT22;4872;48.316;10.650;2023-02-28T09:00:18;-0.50;87.10
9668;DHT22;4872;48.316;10.650;2023-02-28T09:02:45;-0.40;87.40
9668;DHT22;4872;48.316;10.650;2023-02-28T09:05:12;-0.40;87.10
9668;DHT22;4872;48.316;10.650;2023-02-28T09:07:40;-0.40;86.80
9668;DHT22;4872;48.316;10.650;2023-02-28T09:10:07;-0.30;87.40
9668;DHT22;4872;48.316;10.650;2023-02-28T09:12:34;-0.30;87.10
9668;DHT22;4872;48.316;10.650;2023-02-28T09:15:02;-0.30;86.20
9668;DHT22;4872;48.316;10.650;2023-02-28T09:17:29;-0.20;86.70
9668;DHT22;4872;48.316;10.650;2023-02-28T09:19:55;-0.20;87.50
9668;DHT22;4872;48.316;10.650;2023-02-28T09:22:22;-0.10;87.30
9668;DHT22;4872;48.316;10.650;2023-02-28T09:24:50;-0.10;87.60
9668;DHT22;4872;48.316;10.650;2023-02-28T09:27:17;-0.10;87.00
9668;DHT22;4872;48.316;10.650;2023-02-28T09:29:44;0.00;87.10
9668;DHT22;4872;48.316;10.650;2023-02-28T09:32:10;0.10;86.80
9668;DHT22;4872;48.316;10.650;2023-02-28T09:34:37;0.10;86.20
9668;DHT22;4872;48.316;10.650;2023-02-28T09:37:04;0.20;85.60
9668;DHT22;4872;48.316;10.650;2023-02-28T09:39:31;0.20;86.30
9668;DHT22;4872;48.316;10.650;2023-02-28T09:41:59;0.30;86.40
9668;DHT22;4872;48.316;10.650;2023-02-28T09:44:30;0.40;86.30
9668;DHT22;4872;48.316;10.650;2023-02-28T09:47:01;0.50;85.80
9668;DHT22;4872;48.316;10.650;2023-02-28T09:49:34;0.60;85.80
9668;DHT22;4872;48.316;10.650;2023-02-28T09:52:06;0.70;85.40
9668;DHT22;4872;48.316;10.650;2023-02-28T09:54:35;1.40;84.50
9668;DHT22;4872;48.316;10.650;2023-02-28T09:57:07;0.90;84.00
9668;DHT22;4872;48.316;10.650;2023-02-28T09:59:44;1.00;84.40
9668;DHT22;4872;48.316;10.650;2023-02-28T10:05:29;1.30;83.80
9668;DHT22;4872;48.316;10.650;2023-02-28T10:08:03;1.40;83.90
9668;DHT22;4872;48.316;10.650;2023-02-28T10:10:36;1.50;82.70
9668;DHT22;4872;48.316;10.650;2023-02-28T10:13:17;1.60;82.60
9668;DHT22;4872;48.316;10.650;2023-02-28T10:15:52;1.60;82.60
9668;DHT22;4872;48.316;10.650;2023-02-28T10:18:24;1.60;83.50
9668;DHT22;4872;48.316;10.650;2023-02-28T10:20:51;1.70;82.50
9668;DHT22;4872;48.316;10.650;2023-02-28T10:23:24;1.80;82.40
9668;DHT22;4872;48.316;10.650;2023-02-28T10:25:55;1.70;82.30
9668;DHT22;4872;48.316;10.650;2023-02-28T10:28:26;1.80;81.40
9668;DHT22;4872;48.316;10.650;2023-02-28T10:30:57;1.60;80.30
9668;DHT22;4872;48.316;10.650;2023-02-28T10:33:28;1.90;80.50
9668;DHT22;4872;48.316;10.650;2023-02-28T10:35:55;2.30;80.80
9668;DHT22;4872;48.316;10.650;2023-02-28T10:38:27;2.90;80.80
9668;DHT22;4872;48.316;10.650;2023-02-28T10:41:05;3.40;78.70
9668;DHT22;4872;48.316;10.650;2023-02-28T10:43:33;3.70;77.20
9668;DHT22;4872;48.316;10.650;2023-02-28T10:46:03;4.10;75.70
9668;DHT22;4872;48.316;10.650;2023-02-28T10:48:33;4.40;75.60
9668;DHT22;4872;48.316;10.650;2023-02-28T10:51:01;4.50;74.90
9668;DHT22;4872;48.316;10.650;2023-02-28T10:53:32;4.20;73.00
9668;DHT22;4872;48.316;10.650;2023-02-28T10:56:01;3.90;73.30
9668;DHT22;4872;48.316;10.650;2023-02-28T10:58:31;4.20;74.00
9668;DHT22;4872;48.316;10.650;2023-02-28T11:01:00;4.80;74.50
9668;DHT22;4872;48.316;10.650;2023-02-28T11:03:32;4.80;73.10
9668;DHT22;4872;48.316;10.650;2023-02-28T11:06:05;5.00;72.70
9668;DHT22;4872;48.316;10.650;2023-02-28T11:08:33;5.00;71.70
9668;DHT22;4872;48.316;10.650;2023-02-28T11:11:03;5.00;71.50
9668;DHT22;4872;48.316;10.650;2023-02-28T11:13:33;5.00;72.00
9668;DHT22;4872;48.316;10.650;2023-02-28T11:16:04;5.40;71.20
9668;DHT22;4872;48.316;10.650;2023-02-28T11:18:37;5.30;69.90
9668;DHT22;4872;48.316;10.650;2023-02-28T11:21:05;5.30;71.60
9668;DHT22;4872;48.316;10.650;2023-02-28T11:23:34;5.40;70.70
9668;DHT22;4872;48.316;10.650;2023-02-28T11:26:03;5.70;70.40
9668;DHT22;4872;48.316;10.650;2023-02-28T11:28:37;5.90;70.90
9668;DHT22;4872;48.316;10.650;2023-02-28T11:31:15;6.50;68.90
9668;DHT22;4872;48.316;10.650;2023-02-28T11:33:45;6.80;66.80
9668;DHT22;4872;48.316;10.650;2023-02-28T11:36:17;7.10;68.00
9668;DHT22;4872;48.316;10.650;2023-02-28T11:38:45;7.40;66.50
9668;DHT22;4872;48.316;10.650;2023-02-28T11:41:22;7.50;65.20
9668;DHT22;4872;48.316;10.650;2023-02-28T11:44:05;7.50;65.30
9668;DHT22;4872;48.316;10.650;2023-02-28T11:46:42;8.00;65.90
9668;DHT22;4872;48.316;10.650;2023-02-28T11:49:23;8.20;63.50
9668;DHT22;4872;48.316;10.650;2023-02-28T11:51:58;8.40;62.40
9668;DHT22;4872;48.316;10.650;2023-02-28T11:54:41;8.00;62.50
9668;DHT22;4872;48.316;10.650;2023-02-28T11:57:25;7.80;62.00
9668;DHT22;4872;48.316;10.650;2023-02-28T12:00:01;7.90;62.10
9668;DHT22;4872;48.316;10.650;2023-02-28T12:02:35;8.00;62.20
9668;DHT22;4872;48.316;10.650;2023-02-28T12:05:20;8.40;62.10
9668;DHT22;4872;48.316;10.650;2023-02-28T12:07:58;8.80;62.00
9668;DHT22;4872;48.316;10.650;2023-02-28T12:10:29;9.10;61.90
9668;DHT22;4872;48.316;10.650;2023-02-28T12:13:12;10.20;62.50
9668;DHT22;4872;48.316;10.650;2023-02-28T12:16:13;10.80;57.80
9668;DHT22;4872;48.316;10.650;2023-02-28T12:19:04;10.50;57.60
9668;DHT22;4872;48.316;10.650;2023-02-28T12:21:43;9.60;58.80
9668;DHT22;4872;48.316;10.650;2023-02-28T12:27:17;9.30;58.60
9668;DHT22;4872;48.316;10.650;2023-02-28T12:29:49;9.20;58.20
9668;DHT22;4872;48.316;10.650;2023-02-28T12:32:19;9.50;58.40
9668;DHT22;4872;48.316;10.650;2023-02-28T12:34:52;9.30;57.70
9668;DHT22;4872;48.316;10.650;2023-02-28T12:37:24;8.80;57.50
9668;DHT22;4872;48.316;10.650;2023-02-28T12:39:56;8.90;59.40
9668;DHT22;4872;48.316;10.650;2023-02-28T12:42:28;9.10;60.70
9668;DHT22;4872;48.316;10.650;2023-02-28T12:44:58;9.20;57.90
9668;DHT22;4872;48.316;10.650;2023-02-28T12:47:25;8.50;58.70
9668;DHT22;4872;48.316;10.650;2023-02-28T12:49:57;8.00;57.80
9668;DHT22;4872;48.316;10.650;2023-02-28T12:52:29;7.70;58.80
9668;DHT22;4872;48.316;10.650;2023-02-28T12:55:04;7.70;59.70
9668;DHT22;4872;48.316;10.650;2023-02-28T12:57:35;7.20;61.50
9668;DHT22;4872;48.316;10.650;2023-02-28T13:00:08;7.00;62.00
9668;DHT22;4872;48.316;10.650;2023-02-28T13:02:53;6.80;61.00
9668;DHT22;4872;48.316;10.650;2023-02-28T13:08:27;6.60;62.60
9668;DHT22;4872;48.316;10.650;2023-02-28T13:10:59;6.50;63.00
9668;DHT22;4872;48.316;10.650;2023-02-28T13:13:28;6.40;63.30
9668;DHT22;4872;48.316;10.650;2023-02-28T13:16:00;6.60;64.00
9668;DHT22;4872;48.316;10.650;2023-02-28T13:18:31;6.70;62.80
9668;DHT22;4872;48.316;10.650;2023-02-28T13:21:00;7.20;62.70
9668;DHT22;4872;48.316;10.650;2023-02-28T13:23:57;6.80;63.10
9668;DHT22;4872;48.316;10.650;2023-02-28T13:29:40;6.80;62.70
9668;DHT22;4872;48.316;10.650;2023-02-28T13:32:35;6.70;63.30
9668;DHT22;4872;48.316;10.650;2023-02-28T13:35:15;6.70;63.20
9668;DHT22;4872;48.316;10.650;2023-02-28T13:41:41;6.60;63.40
9668;DHT22;4872;48.316;10.650;2023-02-28T13:44:10;6.80;62.20
9668;DHT22;4872;48.316;10.650;2023-02-28T13:49:44;6.80;62.80
9668;DHT22;4872;48.316;10.650;2023-02-28T13:52:17;6.40;61.10
9668;DHT22;4872;48.316;10.650;2023-02-28T13:58:03;6.10;64.10
9668;DHT22;4872;48.316;10.650;2023-02-28T14:00:46;6.30;63.80
9668;DHT22;4872;48.316;10.650;2023-02-28T14:03:32;6.60;63.80
9668;DHT22;4872;48.316;10.650;2023-02-28T14:06:15;6.70;61.80
9668;DHT22;4872;48.316;10.650;2023-02-28T14:08:49;6.40;61.10
9668;DHT22;4872;48.316;10.650;2023-02-28T14:11:28;6.50;62.20
9668;DHT22;4872;48.316;10.650;2023-02-28T14:13:57;6.50;60.90
9668;DHT22;4872;48.316;10.650;2023-02-28T14:16:25;6.20;61.30
9668;DHT22;4872;48.316;10.650;2023-02-28T14:18:57;6.10;62.00
9668;DHT22;4872;48.316;10.650;2023-02-28T14:21:29;6.10;62.20
9668;DHT22;4872;48.316;10.650;2023-02-28T14:57:50;6.70;64.30
9668;DHT22;4872;48.316;10.650;2023-02-28T15:00:25;6.60;64.20
9668;DHT22;4872;48.316;10.650;2023-02-28T15:03:30;6.60;64.30
9668;DHT22;4872;48.316;10.650;2023-02-28T15:06:15;6.60;64.60
9668;DHT22;4872;48.316;10.650;2023-02-28T15:08:43;6.70;63.80
9668;DHT22;4872;48.316;10.650;2023-02-28T15:11:14;6.70;63.30
9668;DHT22;4872;48.316;10.650;2023-02-28T15:13:48;6.70;63.80
9668;DHT22;4872;48.316;10.650;2023-02-28T15:16:19;6.80;63.20
9668;DHT22;4872;48.316;10.650;2023-02-28T15:18:49;7.10;63.60
9668;DHT22;4872;48.316;10.650;2023-02-28T15:21:21;7.50;62.10
9668;DHT22;4872;48.316;10.650;2023-02-28T15:23:51;7.70;61.70
9668;DHT22;4872;48.316;10.650;2023-02-28T15:26:21;7.40;61.70
9668;DHT22;4872;48.316;10.650;2023-02-28T15:28:51;7.00;61.80
9668;DHT22;4872;48.316;10.650;2023-02-28T15:31:25;6.70;62.50
9668;DHT22;4872;48.316;10.650;2023-02-28T15:33:54;6.60;63.30
9668;DHT22;4872;48.316;10.650;2023-02-28T15:36:28;6.20;64.00
9668;DHT22;4872;48.316;10.650;2023-02-28T15:38:55;6.00;63.70
9668;DHT22;4872;48.316;10.650;2023-02-28T15:41:25;6.20;63.50
9668;DHT22;4872;48.316;10.650;2023-02-28T15:44:18;6.00;63.30
9668;DHT22;4872;48.316;10.650;2023-02-28T15:47:19;6.30;64.10
9668;DHT22;4872;48.316;10.650;2023-02-28T15:49:53;6.60;63.70
9668;DHT22;4872;48.316;10.650;2023-02-28T15:52:28;6.70;63.00
9668;DHT22;4872;48.316;10.650;2023-02-28T15:54:57;6.90;62.00
9668;DHT22;4872;48.316;10.650;2023-02-28T15:57:26;7.20;62.10
9668;DHT22;4872;48.316;10.650;2023-02-28T15:59:58;7.30;61.90
9668;DHT22;4872;48.316;10.650;2023-02-28T16:02:31;7.40;62.40
9668;DHT22;4872;48.316;10.650;2023-02-28T16:05:12;7.60;61.50
9668;DHT22;4872;48.316;10.650;2023-02-28T16:07:46;7.90;60.40
9668;DHT22;4872;48.316;10.650;2023-02-28T16:10:13;7.40;60.70
9668;DHT22;4872;48.316;10.650;2023-02-28T16:12:41;7.70;61.60
9668;DHT22;4872;48.316;10.650;2023-02-28T16:15:19;7.50;61.20
9668;DHT22;4872;48.316;10.650;2023-02-28T16:17:47;7.00;61.50
9668;DHT22;4872;48.316;10.650;2023-02-28T16:20:15;6.90;61.70
9668;DHT22;4872;48.316;10.650;2023-02-28T16:22:42;6.50;62.40
9668;DHT22;4872;48.316;10.650;2023-02-28T16:25:11;6.30;62.00
9668;DHT22;4872;48.316;10.650;2023-02-28T16:27:38;5.90;62.90
9668;DHT22;4872;48.316;10.650;2023-02-28T16:30:07;5.40;63.20
9668;DHT22;4872;48.316;10.650;2023-02-28T16:32:35;5.10;64.00
9668;DHT22;4872;48.316;10.650;2023-02-28T16:35:03;5.30;64.70
9668;DHT22;4872;48.316;10.650;2023-02-28T16:37:32;4.50;65.00
9668;DHT22;4872;48.316;10.650;2023-02-28T16:39:59;4.20;65.40
9668;DHT22;4872;48.316;10.650;2023-02-28T16:42:27;3.90;65.80
9668;DHT22;4872;48.316;10.650;2023-02-28T16:44:57;3.70;66.00
9668;DHT22;4872;48.316;10.650;2023-02-28T16:47:24;3.70;66.80
9668;DHT22;4872;48.316;10.650;2023-02-28T16:49:53;3.50;67.10
9668;DHT22;4872;48.316;10.650;2023-02-28T16:52:20;3.30;67.20
9668;DHT22;4872;48.316;10.650;2023-02-28T16:54:47;3.20;68.00
9668;DHT22;4872;48.316;10.650;2023-02-28T16:57:18;3.10;67.90
9668;DHT22;4872;48.316;10.650;2023-02-28T16:59:46;2.90;67.60
9668;DHT22;4872;48.316;10.650;2023-02-28T17:02:14;2.80;68.00
9668;DHT22;4872;48.316;10.650;2023-02-28T17:04:41;2.80;68.40
9668;DHT22;4872;48.316;10.650;2023-02-28T17:07:11;2.70;68.60
9668;DHT22;4872;48.316;10.650;2023-02-28T17:09:38;2.60;69.10
9668;DHT22;4872;48.316;10.650;2023-02-28T17:12:06;2.80;69.80
9668;DHT22;4872;48.316;10.650;2023-02-28T17:14:33;2.50;69.70
9668;DHT22;4872;48.316;10.650;2023-02-28T17:17:00;2.50;69.80
9668;DHT22;4872;48.316;10.650;2023-02-28T17:19:27;2.40;69.90
9668;DHT22;4872;48.316;10.650;2023-02-28T17:21:54;2.30;70.30
9668;DHT22;4872;48.316;10.650;2023-02-28T17:24:22;2.10;71.80
9668;DHT22;4872;48.316;10.650;2023-02-28T17:26:49;2.10;72.00
9668;DHT22;4872;48.316;10.650;2023-02-28T17:29:17;2.10;72.00
9668;DHT22;4872;48.316;10.650;2023-02-28T17:31:44;2.00;72.20
9668;DHT22;4872;48.316;10.650;2023-02-28T17:34:11;1.90;72.50
9668;DHT22;4872;48.316;10.650;2023-02-28T17:36:43;1.90;72.50
9668;DHT22;4872;48.316;10.650;2023-02-28T17:39:11;1.90;73.00
9668;DHT22;4872;48.316;10.650;2023-02-28T17:41:40;1.80;73.30
9668;DHT22;4872;48.316;10.650;2023-02-28T17:44:07;1.80;73.70
9668;DHT22;4872;48.316;10.650;2023-02-28T17:46:34;1.90;73.30
9668;DHT22;4872;48.316;10.650;2023-02-28T17:49:01;1.70;73.00
9668;DHT22;4872;48.316;10.650;2023-02-28T17:51:28;1.70;73.60
9668;DHT22;4872;48.316;10.650;2023-02-28T17:53:54;1.60;73.50
9668;DHT22;4872;48.316;10.650;2023-02-28T17:56:23;1.70;73.50
9668;DHT22;4872;48.316;10.650;2023-02-28T17:58:52;1.60;73.70
9668;DHT22;4872;48.316;10.650;2023-02-28T18:01:20;1.50;74.10
9668;DHT22;4872;48.316;10.650;2023-02-28T18:03:48;1.40;74.50
9668;DHT22;4872;48.316;10.650;2023-02-28T18:06:17;1.30;75.60
9668;DHT22;4872;48.316;10.650;2023-02-28T18:08:45;1.30;75.20
9668;DHT22;4872;48.316;10.650;2023-02-28T18:11:12;1.30;75.60
9668;DHT22;4872;48.316;10.650;2023-02-28T18:13:48;1.30;75.10
9668;DHT22;4872;48.316;10.650;2023-02-28T18:16:18;1.30;75.00
9668;DHT22;4872;48.316;10.650;2023-02-28T18:18:46;1.30;75.50
9668;DHT22;4872;48.316;10.650;2023-02-28T18:21:14;1.30;75.40
9668;DHT22;4872;48.316;10.650;2023-02-28T18:23:42;1.30;75.20
9668;DHT22;4872;48.316;10.650;2023-02-28T18:26:13;1.30;75.00
9668;DHT22;4872;48.316;10.650;2023-02-28T18:28:39;1.20;75.50
9668;DHT22;4872;48.316;10.650;2023-02-28T18:31:10;1.10;75.70
9668;DHT22;4872;48.316;10.650;2023-02-28T18:33:38;0.90;76.20
9668;DHT22;4872;48.316;10.650;2023-02-28T18:36:06;1.00;75.90
9668;DHT22;4872;48.316;10.650;2023-02-28T18:38:32;1.00;76.00
9668;DHT22;4872;48.316;10.650;2023-02-28T18:41:01;0.90;76.00
9668;DHT22;4872;48.316;10.650;2023-02-28T18:43:30;0.80;76.70
9668;DHT22;4872;48.316;10.650;2023-02-28T18:45:57;0.80;76.70
9668;DHT22;4872;48.316;10.650;2023-02-28T18:48:24;0.80;76.90
9668;DHT22;4872;48.316;10.650;2023-02-28T18:50:52;0.80;77.00
9668;DHT22;4872;48.316;10.650;2023-02-28T18:53:18;0.80;76.90
9668;DHT22;4872;48.316;10.650;2023-02-28T18:55:45;1.10;77.20
9668;DHT22;4872;48.316;10.650;2023-02-28T18:58:12;0.80;76.90
9668;DHT22;4872;48.316;10.650;2023-02-28T19:00:39;0.90;77.00
9668;DHT22;4872;48.316;10.650;2023-02-28T19:03:06;0.80;77.00
9668;DHT22;4872;48.316;10.650;2023-02-28T19:05:32;0.80;76.70
9668;DHT22;4872;48.316;10.650;2023-02-28T19:08:01;0.80;76.90
9668;DHT22;4872;48.316;10.650;2023-02-28T19:10:29;0.70;77.10
9668;DHT22;4872;48.316;10.650;2023-02-28T19:12:56;0.70;77.50
9668;DHT22;4872;48.316;10.650;2023-02-28T19:15:23;0.60;78.10
9668;DHT22;4872;48.316;10.650;2023-02-28T19:17:50;0.50;78.10
9668;DHT22;4872;48.316;10.650;2023-02-28T19:20:17;0.50;78.50
9668;DHT22;4872;48.316;10.650;2023-02-28T19:22:44;0.40;78.90
9668;DHT22;4872;48.316;10.650;2023-02-28T19:25:24;0.40;79.10
9668;DHT22;4872;48.316;10.650;2023-02-28T19:27:51;0.30;79.40
9668;DHT22;4872;48.316;10.650;2023-02-28T19:30:19;0.50;80.30
9668;DHT22;4872;48.316;10.650;2023-02-28T19:32:46;0.60;80.20
9668;DHT22;4872;48.316;10.650;2023-02-28T19:35:13;0.70;80.40
9668;DHT22;4872;48.316;10.650;2023-02-28T19:37:40;0.60;80.80
9668;DHT22;4872;48.316;10.650;2023-02-28T19:40:08;0.60;81.20
9668;DHT22;4872;48.316;10.650;2023-02-28T19:42:39;0.60;81.50
9668;DHT22;4872;48.316;10.650;2023-02-28T19:45:07;1.10;81.90
9668;DHT22;4872;48.316;10.650;2023-02-28T19:47:39;0.80;81.40
9668;DHT22;4872;48.316;10.650;2023-02-28T19:50:07;0.80;81.30
9668;DHT22;4872;48.316;10.650;2023-02-28T19:52:34;0.80;81.30
9668;DHT22;4872;48.316;10.650;2023-02-28T19:55:01;0.90;81.50
9668;DHT22;4872;48.316;10.650;2023-02-28T19:57:28;0.90;81.10
9668;DHT22;4872;48.316;10.650;2023-02-28T19:59:56;0.90;81.30
9668;DHT22;4872;48.316;10.650;2023-02-28T20:02:23;1.20;81.30
9668;DHT22;4872;48.316;10.650;2023-02-28T20:04:50;0.90;81.00
9668;DHT22;4872;48.316;10.650;2023-02-28T20:07:19;0.90;80.90
9668;DHT22;4872;48.316;10.650;2023-02-28T20:09:46;0.90;80.80
9668;DHT22;4872;48.316;10.650;2023-02-28T20:12:13;0.90;81.00
9668;DHT22;4872;48.316;10.650;2023-02-28T20:14:41;0.90;80.90
9668;DHT22;4872;48.316;10.650;2023-02-28T20:17:09;0.90;81.10
9668;DHT22;4872;48.316;10.650;2023-02-28T20:19:36;0.90;81.00
9668;DHT22;4872;48.316;10.650;2023-02-28T20:22:03;1.00;81.20
9668;DHT22;4872;48.316;10.650;2023-02-28T20:24:32;0.90;80.80
9668;DHT22;4872;48.316;10.650;2023-02-28T20:26:59;1.00;81.20
9668;DHT22;4872;48.316;10.650;2023-02-28T20:29:26;1.00;80.90
9668;DHT22;4872;48.316;10.650;2023-02-28T20:31:52;0.90;80.80
9668;DHT22;4872;48.316;10.650;2023-02-28T20:34:21;0.90;81.00
9668;DHT22;4872;48.316;10.650;2023-02-28T20:36:48;0.90;81.00
9668;DHT22;4872;48.316;10.650;2023-02-28T20:39:15;0.80;81.20
9668;DHT22;4872;48.316;10.650;2023-02-28T20:41:42;0.80;81.40
9668;DHT22;4872;48.316;10.650;2023-02-28T20:44:11;0.80;81.40
9668;DHT22;4872;48.316;10.650;2023-02-28T20:46:38;0.90;81.60
9668;DHT22;4872;48.316;10.650;2023-02-28T20:49:05;0.80;81.40
9668;DHT22;4872;48.316;10.650;2023-02-28T20:51:34;0.80;81.50
9668;DHT22;4872;48.316;10.650;2023-02-28T20:54:04;0.80;81.90
9668;DHT22;4872;48.316;10.650;2023-02-28T20:56:31;1.10;82.10
9668;DHT22;4872;48.316;10.650;2023-02-28T20:58:58;0.80;81.60
9668;DHT22;4872;48.316;10.650;2023-02-28T21:01:27;0.80;81.90
9668;DHT22;4872;48.316;10.650;2023-02-28T21:03:56;0.80;81.90
9668;DHT22;4872;48.316;10.650;2023-02-28T21:06:25;0.80;81.90
9668;DHT22;4872;48.316;10.650;2023-02-28T21:08:54;0.80;81.90
9668;DHT22;4872;48.316;10.650;2023-02-28T21:11:23;0.80;82.10
9668;DHT22;4872;48.316;10.650;2023-02-28T21:13:50;0.80;82.10
9668;DHT22;4872;48.316;10.650;2023-02-28T21:16:19;0.80;82.30
9668;DHT22;4872;48.316;10.650;2023-02-28T21:18:46;0.80;82.10
9668;DHT22;4872;48.316;10.650;2023-02-28T21:21:14;0.80;82.00
9668;DHT22;4872;48.316;10.650;2023-02-28T21:23:42;0.80;82.30
9668;DHT22;4872;48.316;10.650;2023-02-28T21:26:14;0.80;82.20
9668;DHT22;4872;48.316;10.650;2023-02-28T21:28:41;1.50;83.10
9668;DHT22;4872;48.316;10.650;2023-02-28T21:31:10;0.70;82.60
9668;DHT22;4872;48.316;10.650;2023-02-28T21:33:37;0.90;82.60
9668;DHT22;4872;48.316;10.650;2023-02-28T21:36:06;0.80;82.10
9668;DHT22;4872;48.316;10.650;2023-02-28T21:38:33;0.80;82.30
9668;DHT22;4872;48.316;10.650;2023-02-28T21:41:04;0.90;82.70
9668;DHT22;4872;48.316;10.650;2023-02-28T21:43:33;0.90;83.10
9668;DHT22;4872;48.316;10.650;2023-02-28T21:46:00;0.90;83.50
9668;DHT22;4872;48.316;10.650;2023-02-28T21:48:28;0.90;83.50
9668;DHT22;4872;48.316;10.650;2023-02-28T21:50:55;1.00;83.30
9668;DHT22;4872;48.316;10.650;2023-02-28T21:53:22;1.00;83.60
9668;DHT22;4872;48.316;10.650;2023-02-28T21:55:49;1.00;83.60
9668;DHT22;4872;48.316;10.650;2023-02-28T21:58:16;1.00;83.70
9668;DHT22;4872;48.316;10.650;2023-02-28T22:00:44;1.00;83.70
9668;DHT22;4872;48.316;10.650;2023-02-28T22:03:11;1.00;83.70
9668;DHT22;4872;48.316;10.650;2023-02-28T22:05:38;1.00;83.90
9668;DHT22;4872;48.316;10.650;2023-02-28T22:08:05;1.00;84.10
9668;DHT22;4872;48.316;10.650;2023-02-28T22:10:32;1.00;84.30
9668;DHT22;4872;48.316;10.650;2023-02-28T22:12:59;1.10;84.00
9668;DHT22;4872;48.316;10.650;2023-02-28T22:15:28;1.00;84.30